createdAt,value
2022-08-09T00:00:00.217Z,0.50
2022-08-09T00:02:28.451Z,0.50
2022-08-09T00:05:00.818Z,0.40
2022-08-09T00:07:44.577Z,0.47
2022-08-09T00:10:14.407Z,0.68
2022-08-09T00:12:52.822Z,0.43
2022-08-09T00:15:26.448Z,0.68
2022-08-09T00:18:07.625Z,0.45
2022-08-09T00:20:42.381Z,0.47
2022-08-09T00:23:54.705Z,0.60
2022-08-09T00:26:05.150Z,0.50
2022-08-09T00:28:32.314Z,0.47
2022-08-09T00:31:30.445Z,0.38
2022-08-09T00:33:51.694Z,0.55
2022-08-09T00:36:19.869Z,0.45
2022-08-09T00:38:51.267Z,0.60
2022-08-09T00:44:10.644Z,0.50
2022-08-09T00:44:20.482Z,0.38
2022-08-09T00:47:01.770Z,0.52
2022-08-09T00:49:34.801Z,0.50
2022-08-09T00:52:15.828Z,0.50
2022-08-09T00:54:43.058Z,0.60
2022-08-09T00:57:11.880Z,0.50
2022-08-09T00:59:46.643Z,0.40
2022-08-09T01:02:20.540Z,0.52
2022-08-09T01:05:05.407Z,0.50
2022-08-09T01:08:00.367Z,0.50
2022-08-09T01:10:53.760Z,0.47
2022-08-09T01:13:53.287Z,0.30
2022-08-09T01:16:31.696Z,0.40
2022-08-09T01:19:04.883Z,0.47
2022-08-09T01:21:53.767Z,0.50
2022-08-09T01:24:50.335Z,0.43
2022-08-09T01:27:21.398Z,0.50
2022-08-09T01:29:58.892Z,0.40
2022-08-09T01:32:46.037Z,0.40
2022-08-09T01:35:37.890Z,0.43
2022-08-09T01:38:15.401Z,0.30
2022-08-09T01:40:52.329Z,0.60
2022-08-09T01:43:32.421Z,0.40
2022-08-09T01:46:26.504Z,0.40
2022-08-09T01:48:57.035Z,0.30
2022-08-09T01:51:32.592Z,0.40
2022-08-09T01:54:02.749Z,0.50
2022-08-09T01:56:33.116Z,0.40
2022-08-09T01:59:03.984Z,0.30
2022-08-09T02:01:59.047Z,0.40
2022-08-09T02:04:21.728Z,0.40
2022-08-09T02:07:18.186Z,0.43
2022-08-09T02:10:04.043Z,0.50
2022-08-09T02:12:34.976Z,0.40
2022-08-09T02:15:06.310Z,0.50
2022-08-09T02:18:09.542Z,0.30
2022-08-09T02:20:25.243Z,0.52
2022-08-09T02:23:12.116Z,0.40
2022-08-09T02:25:42.042Z,0.50
2022-08-09T02:28:24.214Z,0.40
2022-08-09T02:31:07.983Z,0.38
2022-08-09T02:34:06.318Z,0.40
2022-08-09T02:36:37.911Z,0.30
2022-08-09T02:39:14.334Z,0.50
2022-08-09T02:41:45.470Z,0.50
2022-08-09T02:44:29.090Z,0.40
2022-08-09T02:47:01.799Z,0.40
2022-08-09T02:49:41.291Z,0.47
2022-08-09T02:52:12.820Z,0.28
2022-08-09T02:54:51.105Z,0.40
2022-08-09T03:00:20.706Z,0.30
2022-08-09T03:02:58.481Z,0.57
2022-08-09T03:05:27.991Z,0.40
2022-08-09T03:07:55.907Z,0.20
2022-08-09T03:10:24.444Z,0.50
2022-08-09T03:12:53.088Z,0.50
2022-08-09T03:15:22.938Z,0.30
2022-08-09T03:17:57.806Z,0.45
2022-08-09T03:20:29.565Z,0.35
2022-08-09T03:23:00.395Z,0.35
2022-08-09T03:25:57.647Z,0.52
2022-08-09T03:28:26.920Z,0.50
2022-08-09T03:30:55.077Z,0.50
2022-08-09T03:33:22.688Z,0.50
2022-08-09T03:36:13.510Z,0.45
2022-08-09T03:38:41.681Z,0.30
2022-08-09T03:41:10.380Z,0.40
2022-08-09T03:43:42.726Z,0.45
2022-08-09T03:46:20.559Z,0.30
2022-08-09T03:48:57.911Z,0.32
2022-08-09T03:51:55.372Z,0.60
2022-08-09T03:54:14.542Z,0.47
2022-08-09T03:56:44.728Z,0.30
2022-08-09T03:59:20.800Z,0.32
2022-08-09T04:01:56.571Z,0.40
2022-08-09T04:04:32.619Z,0.60
2022-08-09T04:07:05.768Z,0.47
2022-08-09T04:09:44.445Z,0.40
2022-08-09T04:12:29.972Z,0.57
2022-08-09T04:15:01.809Z,0.40
2022-08-09T04:17:29.988Z,0.50
2022-08-09T04:19:58.750Z,0.47
2022-08-09T04:22:29.708Z,0.40
2022-08-09T04:24:58.885Z,0.47
2022-08-09T04:27:25.758Z,0.50
2022-08-09T04:29:56.094Z,0.30
2022-08-09T04:32:31.381Z,0.30
2022-08-09T04:35:01.313Z,0.45
2022-08-09T04:37:45.916Z,0.47
2022-08-09T04:40:29.106Z,0.50
2022-08-09T04:43:01.246Z,0.45
2022-08-09T04:45:30.345Z,0.50
2022-08-09T04:48:04.076Z,0.40
2022-08-09T04:50:37.917Z,0.50
2022-08-09T04:53:13.251Z,0.50
2022-08-09T04:55:43.260Z,0.43
2022-08-09T04:58:26.411Z,0.50
2022-08-09T05:00:54.278Z,0.38
2022-08-09T05:03:42.541Z,0.50
2022-08-09T05:06:08.909Z,1.38
2022-08-09T05:08:36.091Z,1.63
2022-08-09T05:11:03.729Z,1.50
2022-08-09T05:13:34.077Z,1.10
2022-08-09T05:18:38.288Z,1.35
2022-08-09T05:21:23.257Z,1.42
2022-08-09T05:23:58.502Z,1.42
2022-08-09T05:26:36.154Z,1.33
2022-08-09T05:29:04.790Z,1.33
2022-08-09T05:31:45.947Z,1.23
2022-08-09T05:34:17.022Z,1.58
2022-08-09T05:36:46.922Z,1.40
2022-08-09T05:39:28.492Z,1.60
2022-08-09T05:41:56.748Z,1.50
2022-08-09T05:44:29.099Z,1.40
2022-08-09T05:47:00.217Z,1.20
2022-08-09T05:50:31.068Z,1.35
2022-08-09T05:52:14.526Z,1.40
2022-08-09T05:54:42.212Z,1.30
2022-08-09T05:57:12.747Z,1.30
2022-08-09T06:02:09.951Z,1.27
2022-08-09T06:04:36.848Z,1.13
2022-08-09T06:07:11.596Z,1.10
2022-08-09T06:10:01.782Z,1.10
2022-08-09T06:12:29.778Z,1.45
2022-08-09T06:15:00.978Z,1.20
2022-08-09T06:20:06.351Z,1.10
2022-08-09T06:22:33.184Z,1.20
2022-08-09T06:25:00.012Z,1.30
2022-08-09T06:27:26.660Z,0.88
2022-08-09T06:30:10.743Z,1.10
2022-08-09T06:32:59.821Z,1.10
2022-08-09T06:35:56.242Z,1.15
2022-08-09T06:38:15.815Z,1.40
2022-08-09T06:40:43.409Z,1.08
2022-08-09T06:43:10.641Z,0.80
2022-08-09T06:46:06.708Z,1.10
2022-08-09T06:48:26.128Z,1.00
2022-08-09T06:51:00.771Z,1.30
2022-08-09T06:53:33.414Z,1.20
2022-08-09T06:56:06.975Z,1.30
2022-08-09T07:00:46.942Z,1.20
2022-08-09T07:01:21.494Z,1.00
2022-08-09T07:03:53.094Z,1.10
2022-08-09T07:06:23.323Z,0.80
2022-08-09T07:08:54.655Z,0.95
2022-08-09T07:11:23.762Z,1.27
2022-08-09T07:14:05.121Z,0.90
2022-08-09T07:16:41.123Z,1.15
2022-08-09T07:19:23.128Z,1.00
2022-08-09T07:21:57.831Z,0.80
2022-08-09T07:24:32.233Z,1.20
2022-08-09T07:27:11.035Z,1.05
2022-08-09T07:29:57.159Z,0.98
2022-08-09T07:32:31.870Z,1.00
2022-08-09T07:35:08.239Z,0.90
2022-08-09T07:37:44.184Z,1.00
2022-08-09T07:40:17.451Z,0.88
2022-08-09T07:42:59.935Z,0.75
2022-08-09T07:45:37.944Z,1.13
2022-08-09T07:48:07.206Z,1.15
2022-08-09T07:50:36.868Z,0.88
2022-08-09T07:53:05.232Z,0.85
2022-08-09T07:55:41.384Z,1.27
2022-08-09T07:58:21.566Z,0.98
2022-08-09T08:00:58.696Z,1.08
2022-08-09T08:03:33.159Z,0.90
2022-08-09T08:06:03.896Z,0.93
2022-08-09T08:09:01.315Z,0.98
2022-08-09T08:12:10.010Z,1.00
2022-08-09T08:14:04.842Z,0.88
2022-08-09T08:16:33.304Z,0.90
2022-08-09T08:19:02.976Z,1.10
2022-08-09T08:21:30.335Z,1.00
2022-08-09T08:23:56.993Z,0.90
2022-08-09T08:26:54.469Z,1.05
2022-08-09T08:29:14.944Z,0.80
2022-08-09T08:32:03.720Z,0.85
2022-08-09T08:34:34.378Z,1.10
2022-08-09T08:37:01.984Z,1.00
2022-08-09T08:39:28.885Z,1.20
2022-08-09T08:41:58.920Z,0.85
2022-08-09T08:44:29.661Z,1.00
2022-08-09T08:47:04.727Z,0.88
2022-08-09T08:49:46.793Z,0.80
2022-08-09T08:52:48.474Z,0.85
2022-08-09T08:55:03.996Z,1.00
2022-08-09T08:57:34.647Z,0.80
2022-08-09T09:00:02.688Z,0.80
2022-08-09T09:02:36.118Z,0.63
2022-08-09T09:05:10.020Z,0.90
2022-08-09T09:07:42.362Z,0.80
2022-08-09T09:10:10.907Z,0.88
2022-08-09T09:12:38.064Z,0.80
2022-08-09T09:15:06.499Z,0.80
2022-08-09T09:17:48.542Z,0.77
2022-08-09T09:20:16.512Z,0.80
2022-08-09T09:23:02.039Z,1.08
2022-08-09T09:26:00.963Z,0.80
2022-08-09T09:28:21.378Z,0.80
2022-08-09T09:32:04.550Z,1.00
2022-08-09T09:34:18.028Z,0.75
2022-08-09T09:36:53.093Z,0.70
2022-08-09T09:39:23.628Z,0.90
2022-08-09T09:42:23.357Z,0.80
2022-08-09T09:45:00.412Z,0.90
2022-08-09T09:47:28.740Z,0.85
2022-08-09T09:50:13.886Z,0.70
2022-08-09T09:52:54.735Z,0.85
2022-08-09T09:55:27.987Z,0.80
2022-08-09T09:58:18.141Z,0.90
2022-08-09T10:00:55.002Z,0.73
2022-08-09T10:03:58.247Z,1.00
2022-08-09T10:06:52.126Z,0.80
2022-08-09T10:09:23.351Z,0.80
2022-08-09T10:12:14.509Z,0.90
2022-08-09T10:14:49.317Z,0.82
2022-08-09T10:17:39.004Z,0.68
2022-08-09T10:20:35.760Z,0.57
2022-08-09T10:23:22.763Z,0.82
2022-08-09T10:26:08.093Z,0.65
2022-08-09T10:28:39.977Z,0.90
2022-08-09T10:32:27.787Z,0.77
2022-08-09T10:34:08.589Z,0.80
2022-08-09T10:36:43.255Z,0.60
2022-08-09T10:39:16.086Z,0.70
2022-08-09T10:41:47.982Z,0.82
2022-08-09T10:44:19.220Z,0.77
2022-08-09T10:48:13.105Z,0.70
2022-08-09T10:50:05.597Z,0.90
2022-08-09T10:52:55.715Z,0.70
2022-08-09T10:55:28.315Z,0.70
2022-08-09T10:57:59.915Z,0.98
2022-08-09T11:00:34.647Z,0.77
2022-08-09T11:03:16.333Z,0.88
2022-08-09T11:06:18.504Z,0.90
2022-08-09T11:08:51.196Z,0.80
2022-08-09T11:11:21.044Z,0.75
2022-08-09T11:14:28.348Z,0.68
2022-08-09T11:16:57.037Z,0.70
2022-08-09T11:20:12.650Z,0.60
2022-08-09T11:22:55.462Z,0.75
2022-08-09T11:25:47.345Z,0.82
2022-08-09T11:28:54.226Z,0.70
2022-08-09T11:31:53.168Z,0.82
2022-08-09T11:34:40.017Z,0.70
2022-08-09T11:37:08.816Z,0.55
2022-08-09T11:40:03.880Z,0.93
2022-08-09T11:42:43.313Z,0.82
2022-08-09T11:45:42.452Z,0.80
2022-08-09T11:48:26.621Z,0.60
2022-08-09T11:52:48.894Z,0.70
2022-08-09T11:54:28.060Z,0.60
2022-08-09T11:58:00.345Z,0.70
2022-08-09T12:00:27.799Z,0.80
2022-08-09T12:02:56.518Z,0.77
2022-08-09T12:05:39.678Z,0.60
2022-08-09T12:08:12.126Z,0.63
2022-08-09T12:11:05.535Z,0.80
2022-08-09T12:14:11.079Z,0.70
2022-08-09T12:16:41.797Z,0.70
2022-08-09T12:19:12.244Z,0.50
2022-08-09T12:21:48.439Z,0.73
2022-08-09T12:24:24.353Z,0.60
2022-08-09T12:29:10.019Z,0.50
2022-08-09T12:30:01.478Z,0.65
2022-08-09T12:32:41.120Z,0.85
2022-08-09T12:35:12.585Z,0.70
2022-08-09T12:37:50.698Z,0.70
2022-08-09T12:40:21.192Z,0.50
2022-08-09T12:42:50.878Z,0.75
2022-08-09T12:45:34.408Z,0.80
2022-08-09T12:48:20.025Z,0.90
2022-08-09T12:50:57.355Z,0.70
2022-08-09T12:53:36.705Z,0.98
2022-08-09T12:56:39.435Z,0.60
2022-08-09T12:59:15.083Z,0.77
2022-08-09T13:01:58.854Z,0.70
2022-08-09T13:04:36.443Z,0.60
2022-08-09T13:07:13.997Z,0.68
2022-08-09T13:09:53.039Z,0.70
2022-08-09T13:12:27.155Z,0.75
2022-08-09T13:15:07.096Z,0.60
2022-08-09T13:18:03.400Z,0.50
2022-08-09T13:20:37.871Z,0.77
2022-08-09T13:24:16.207Z,0.60
2022-08-09T13:26:53.706Z,0.70
2022-08-09T13:29:28.515Z,0.70
2022-08-09T13:32:14.185Z,0.70
2022-08-09T13:34:44.973Z,0.55
2022-08-09T13:37:14.993Z,0.65
2022-08-09T13:41:50.597Z,0.77
2022-08-09T13:42:49.777Z,0.70
2022-08-09T13:45:16.989Z,0.70
2022-08-09T13:47:49.161Z,0.70
2022-08-09T13:50:30.997Z,0.63
2022-08-09T13:52:58.731Z,0.68
2022-08-09T13:55:28.976Z,0.80
2022-08-09T13:57:59.291Z,0.80
2022-08-09T14:00:28.877Z,0.80
2022-08-09T14:03:03.278Z,0.70
2022-08-09T14:05:58.778Z,0.80
2022-08-09T14:08:30.172Z,0.77
2022-08-09T14:10:57.930Z,0.70
2022-08-09T14:14:15.029Z,0.52
2022-08-09T14:16:16.149Z,0.50
2022-08-09T14:18:49.351Z,0.57
2022-08-09T14:21:23.114Z,0.73
2022-08-09T14:23:55.662Z,0.70
2022-08-09T14:26:25.271Z,0.70
2022-08-09T14:28:52.790Z,0.70
2022-08-09T14:31:19.428Z,0.63
2022-08-09T14:33:52.221Z,0.52
2022-08-09T14:36:21.505Z,0.80
2022-08-09T14:38:53.073Z,0.65
2022-08-09T14:41:34.547Z,0.60
2022-08-09T14:44:09.653Z,0.60
2022-08-09T14:47:03.190Z,0.50
2022-08-09T14:49:26.194Z,0.50
2022-08-09T14:51:59.094Z,0.70
2022-08-09T14:54:28.593Z,0.70
2022-08-09T14:56:57.620Z,0.60
2022-08-09T14:59:25.020Z,0.57
2022-08-09T15:01:53.824Z,0.70
2022-08-09T15:04:20.578Z,0.50
2022-08-09T15:06:51.276Z,0.70
2022-08-09T15:10:04.004Z,0.77
2022-08-09T15:12:07.752Z,0.70
2022-08-09T15:14:38.691Z,0.63
2022-08-09T15:17:09.192Z,0.75
2022-08-09T15:19:36.909Z,0.65
2022-08-09T15:22:22.015Z,0.68
2022-08-09T15:24:53.067Z,0.60
2022-08-09T15:27:19.720Z,0.70
2022-08-09T15:30:56.258Z,0.60
2022-08-09T15:32:33.276Z,0.55
2022-08-09T15:35:00.439Z,0.60
2022-08-09T15:37:37.888Z,0.70
2022-08-09T15:40:22.918Z,0.77
2022-08-09T15:42:53.200Z,0.50
2022-08-09T15:45:21.485Z,0.50
2022-08-09T15:48:02.471Z,0.52
2022-08-09T15:50:34.686Z,0.63
2022-08-09T15:54:02.208Z,0.60
2022-08-09T15:56:18.082Z,0.60
2022-08-09T15:58:39.935Z,0.50
2022-08-09T16:01:08.147Z,0.73
2022-08-09T16:03:38.251Z,0.70
2022-08-09T16:06:27.374Z,1.00
2022-08-09T16:08:55.965Z,0.90
2022-08-09T16:11:22.723Z,1.55
2022-08-09T16:14:02.844Z,1.35
2022-08-09T16:16:34.659Z,1.05
2022-08-09T16:19:06.187Z,1.00
2022-08-09T16:21:35.350Z,0.77
2022-08-09T16:24:04.793Z,0.88
2022-08-09T16:26:34.707Z,1.00
2022-08-09T16:29:13.421Z,1.13
2022-08-09T16:32:19.713Z,1.02
2022-08-09T16:37:50.627Z,1.20
2022-08-09T16:40:08.589Z,0.98
2022-08-09T16:42:35.748Z,0.98
2022-08-09T16:45:04.054Z,1.38
2022-08-09T16:48:50.222Z,1.15
2022-08-09T16:50:30.452Z,1.13
2022-08-09T16:53:01.340Z,1.15
2022-08-09T16:55:31.442Z,1.15
2022-08-09T16:58:16.651Z,1.42
2022-08-09T17:00:43.717Z,1.20
2022-08-09T17:03:21.838Z,0.98
2022-08-09T17:06:08.549Z,1.30
2022-08-09T17:09:01.396Z,1.05
2022-08-09T17:11:40.654Z,1.10
2022-08-09T17:14:25.421Z,1.10
2022-08-09T17:16:59.990Z,1.20
2022-08-09T17:19:47.484Z,1.10
2022-08-09T17:22:24.201Z,1.20
2022-08-09T17:24:55.848Z,1.20
2022-08-09T17:27:31.263Z,1.10
2022-08-09T17:29:57.948Z,1.15
2022-08-09T17:32:34.748Z,0.90
2022-08-09T17:35:11.518Z,0.90
2022-08-09T17:38:14.613Z,1.10
2022-08-09T17:40:27.759Z,1.00
2022-08-09T17:42:59.557Z,1.10
2022-08-09T17:46:01.753Z,0.85
2022-08-09T17:48:16.953Z,1.10
2022-08-09T17:50:56.057Z,1.20
2022-08-09T17:53:23.450Z,1.13
2022-08-09T17:55:57.064Z,1.00
2022-08-09T17:58:27.384Z,1.20
2022-08-09T18:00:56.610Z,1.00
2022-08-09T18:03:25.712Z,1.10
2022-08-09T18:05:53.639Z,1.33
2022-08-09T18:08:22.064Z,1.00
2022-08-09T18:11:00.695Z,0.90
2022-08-09T18:13:43.614Z,1.00
2022-08-09T18:16:16.804Z,1.13
2022-08-09T18:18:57.214Z,1.02
2022-08-09T18:21:26.049Z,1.02
2022-08-09T18:24:10.300Z,1.05
2022-08-09T18:26:46.307Z,1.27
2022-08-09T18:30:39.001Z,1.13
2022-08-09T18:32:04.848Z,0.88
2022-08-09T18:34:34.838Z,1.10
2022-08-09T18:37:02.602Z,1.00
2022-08-09T18:39:32.581Z,1.20
2022-08-09T18:42:01.680Z,1.15
2022-08-09T18:44:28.364Z,1.00
2022-08-09T18:47:04.249Z,1.30
2022-08-09T18:49:46.158Z,1.10
2022-08-09T18:52:14.566Z,1.00
2022-08-09T18:54:52.351Z,1.02
2022-08-09T18:57:22.181Z,1.10
2022-08-09T18:59:51.946Z,1.02
2022-08-09T19:02:32.923Z,1.10
2022-08-09T19:05:19.707Z,1.00
2022-08-09T19:08:04.636Z,1.05
2022-08-09T19:10:37.721Z,1.20
2022-08-09T19:13:19.560Z,1.50
2022-08-09T19:15:51.410Z,1.30
2022-08-09T19:18:32.957Z,1.50
2022-08-09T19:21:08.934Z,1.50
2022-08-09T19:24:35.580Z,1.80
2022-08-09T19:26:31.815Z,1.73
2022-08-09T19:29:01.658Z,1.45
2022-08-09T19:31:30.408Z,2.00
2022-08-09T19:33:58.038Z,1.63
2022-08-09T19:36:32.699Z,1.60
2022-08-09T19:39:03.423Z,1.60
2022-08-09T19:41:35.321Z,1.98
2022-08-09T19:44:03.640Z,1.88
2022-08-09T19:46:35.137Z,1.83
2022-08-09T19:50:08.841Z,1.90
2022-08-09T19:52:03.932Z,1.83
2022-08-09T19:54:30.851Z,2.10
2022-08-09T19:56:59.032Z,1.80
2022-08-09T19:59:58.829Z,1.63
2022-08-09T20:04:24.030Z,1.70
2022-08-09T20:05:11.579Z,1.55
2022-08-09T20:07:58.696Z,1.88
2022-08-09T20:10:33.951Z,2.05
2022-08-09T20:13:02.347Z,2.65
2022-08-09T20:16:37.337Z,1.45
2022-08-09T20:18:18.676Z,1.88
2022-08-09T20:20:46.687Z,1.50
2022-08-09T20:23:13.620Z,1.63
2022-08-09T20:25:52.357Z,1.48
2022-08-09T20:28:34.454Z,1.50
2022-08-09T20:31:11.347Z,1.45
2022-08-09T20:33:44.129Z,1.60
2022-08-09T20:36:12.305Z,1.50
2022-08-09T20:41:32.020Z,1.50
2022-08-09T20:44:02.401Z,1.52
2022-08-09T20:46:41.936Z,1.58
2022-08-09T20:49:10.456Z,1.58
2022-08-09T20:51:41.401Z,1.33
2022-08-09T20:54:12.818Z,1.65
2022-08-09T20:56:49.793Z,1.63
2022-08-09T20:59:24.917Z,1.60
2022-08-09T21:02:09.839Z,1.40
2022-08-09T21:05:51.204Z,1.48
2022-08-09T21:07:24.888Z,1.60
2022-08-09T21:10:06.162Z,1.50
2022-08-09T21:12:37.772Z,1.25
2022-08-09T21:15:05.486Z,1.45
2022-08-09T21:18:23.353Z,1.55
2022-08-09T21:20:26.789Z,1.30
2022-08-09T21:22:57.190Z,1.60
2022-08-09T21:25:44.303Z,1.60
2022-08-09T21:28:33.189Z,1.40
2022-08-09T21:31:19.434Z,1.15
2022-08-09T21:33:52.334Z,1.30
2022-08-09T21:36:23.586Z,1.52
2022-08-09T21:38:57.378Z,1.40
2022-08-09T21:42:03.896Z,1.25
2022-08-09T21:44:34.209Z,1.38
2022-08-09T21:47:04.016Z,1.30
2022-08-09T21:49:39.500Z,1.60
2022-08-09T21:52:14.807Z,1.20
2022-08-09T21:54:50.963Z,1.40
2022-08-09T21:57:38.585Z,1.60
2022-08-09T22:00:25.491Z,1.48
2022-08-09T22:02:59.096Z,1.08
2022-08-09T22:05:36.992Z,1.10
2022-08-09T22:08:12.965Z,1.48
2022-08-09T22:11:00.936Z,1.40
2022-08-09T22:13:34.753Z,1.30
2022-08-09T22:16:03.559Z,1.38
2022-08-09T22:18:30.929Z,1.20
2022-08-09T22:21:00.740Z,1.10
2022-08-09T22:23:35.523Z,1.40
2022-08-09T22:26:34.429Z,1.40
2022-08-09T22:29:07.023Z,1.13
2022-08-09T22:31:53.168Z,0.95
2022-08-09T22:34:25.558Z,1.50
2022-08-09T22:36:53.821Z,1.27
2022-08-09T22:39:55.565Z,1.30
2022-08-09T22:42:22.501Z,1.30
2022-08-09T22:45:02.296Z,1.25
2022-08-09T22:48:10.307Z,1.17
2022-08-09T22:50:26.501Z,1.10
2022-08-09T22:52:54.803Z,1.38
2022-08-09T22:55:25.339Z,1.25
2022-08-09T22:58:00.629Z,1.05
2022-08-09T23:00:29.310Z,1.30
2022-08-09T23:02:56.341Z,1.30
2022-08-09T23:05:23.023Z,1.33
2022-08-09T23:08:29.091Z,1.30
2022-08-09T23:10:56.500Z,1.10
2022-08-09T23:13:23.155Z,1.13
2022-08-09T23:16:03.209Z,1.30
2022-08-09T23:18:30.760Z,1.20
2022-08-09T23:20:57.459Z,1.30
2022-08-09T23:23:24.093Z,1.20
2022-08-09T23:25:50.707Z,1.30
2022-08-09T23:28:17.405Z,1.25
2022-08-09T23:30:51.944Z,1.20
2022-08-09T23:33:20.590Z,1.40
2022-08-09T23:36:05.563Z,1.02
2022-08-09T23:38:35.664Z,1.30
2022-08-09T23:41:02.848Z,1.25
2022-08-09T23:43:29.504Z,1.30
2022-08-09T23:45:56.204Z,1.30
2022-08-09T23:48:22.865Z,1.17
2022-08-09T23:50:49.511Z,1.33
2022-08-09T23:53:16.171Z,1.10
2022-08-09T23:55:47.303Z,1.30
2022-08-09T23:58:26.013Z,1.02
